createdAt,value
2019-02-14T00:03:14.571Z,5.33
2019-02-14T00:08:21.539Z,4.78
2019-02-14T00:13:30.569Z,5.00
2019-02-14T00:18:36.588Z,5.15
2019-02-14T00:23:43.089Z,4.65
2019-02-14T00:28:51.069Z,6.60
2019-02-14T00:33:57.678Z,6.33
2019-02-14T00:39:07.138Z,5.10
2019-02-14T00:44:13.259Z,4.53
2019-02-14T00:49:20.208Z,4.97
2019-02-14T00:54:26.839Z,5.37
2019-02-14T00:59:32.467Z,5.62
2019-02-14T01:04:40.190Z,5.60
2019-02-14T01:09:46.768Z,4.33
2019-02-14T01:14:53.567Z,5.42
2019-02-14T01:19:59.888Z,4.83
2019-02-14T01:25:06.761Z,4.55
2019-02-14T01:30:12.928Z,4.85
2019-02-14T01:35:19.168Z,4.53
2019-02-14T01:40:25.731Z,5.33
2019-02-14T01:45:31.688Z,5.50
2019-02-14T01:50:37.499Z,4.78
2019-02-14T01:55:43.699Z,5.58
2019-02-14T02:00:49.579Z,4.85
2019-02-14T02:05:55.498Z,5.67
2019-02-14T02:11:01.759Z,4.78
2019-02-14T02:16:07.243Z,4.20
2019-02-14T02:21:13.267Z,4.35
2019-02-14T02:26:19.948Z,5.47
2019-02-14T02:31:26.259Z,4.55
2019-02-14T02:36:32.767Z,5.05
2019-02-14T02:41:39.269Z,4.45
2019-02-14T02:46:45.608Z,3.75
2019-02-14T02:51:51.858Z,5.17
2019-02-14T02:56:57.899Z,4.42
2019-02-14T03:02:04.088Z,3.60
2019-02-14T03:07:10.349Z,3.70
2019-02-14T03:12:16.589Z,4.60
2019-02-14T03:17:23.248Z,4.15
2019-02-14T03:22:29.598Z,4.30
2019-02-14T03:27:35.509Z,4.42
2019-02-14T03:32:42.036Z,3.62
2019-02-14T03:37:48.368Z,3.83
2019-02-14T03:42:54.668Z,4.10
2019-02-14T03:48:01.522Z,4.30
2019-02-14T03:53:07.548Z,4.53
2019-02-14T03:58:14.758Z,3.95
2019-02-14T04:03:21.769Z,3.33
2019-02-14T04:08:27.689Z,3.67
2019-02-14T04:13:33.387Z,4.30
2019-02-14T04:18:39.157Z,3.95
2019-02-14T04:23:45.008Z,4.28
2019-02-14T04:28:50.799Z,4.03
2019-02-14T04:33:56.460Z,3.37
2019-02-14T04:39:02.140Z,2.98
2019-02-14T04:44:07.938Z,3.40
2019-02-14T04:49:13.728Z,3.00
2019-02-14T04:54:19.290Z,4.22
2019-02-14T04:59:24.998Z,3.62
2019-02-14T05:04:30.548Z,3.95
2019-02-14T05:09:36.298Z,3.55
2019-02-14T05:14:42.029Z,3.75
2019-02-14T05:19:47.939Z,3.20
2019-02-14T05:24:55.153Z,3.87
2019-02-14T05:30:01.911Z,3.47
2019-02-14T05:35:08.219Z,4.28
2019-02-14T05:40:14.040Z,3.55
2019-02-14T05:45:20.578Z,3.62
2019-02-14T05:50:26.478Z,3.58
2019-02-14T05:55:32.248Z,3.20
2019-02-14T06:00:38.640Z,3.40
2019-02-14T06:05:44.449Z,3.12
2019-02-14T06:10:50.109Z,3.33
2019-02-14T06:15:55.958Z,3.52
2019-02-14T06:21:01.750Z,3.22
2019-02-14T06:26:07.550Z,3.02
2019-02-14T06:31:13.308Z,3.10
2019-02-14T06:36:19.349Z,3.55
2019-02-14T06:41:25.230Z,3.52
2019-02-14T06:46:31.039Z,3.30
2019-02-14T06:51:36.958Z,4.12
2019-02-14T06:56:42.858Z,3.22
2019-02-14T07:01:49.188Z,3.33
2019-02-14T07:06:55.191Z,4.37
2019-02-14T07:12:00.899Z,3.20
2019-02-14T07:17:06.829Z,3.20
2019-02-14T07:22:12.669Z,2.75
2019-02-14T07:27:18.438Z,3.40
2019-02-14T07:32:24.178Z,3.17
2019-02-14T07:37:29.994Z,3.42
2019-02-14T07:42:35.869Z,8.80
2019-02-14T07:47:41.920Z,5.12
2019-02-14T07:52:47.699Z,6.65
2019-02-14T07:57:53.480Z,7.37
2019-02-14T08:02:59.358Z,5.75
2019-02-14T08:08:05.838Z,6.67
2019-02-14T08:13:11.748Z,7.75
2019-02-14T08:18:17.743Z,7.58
2019-02-14T08:23:23.458Z,8.65
2019-02-14T08:28:29.529Z,4.53
2019-02-14T08:33:35.310Z,17.65
2019-02-14T08:38:41.168Z,11.63
2019-02-14T08:43:46.948Z,15.00
2019-02-14T08:48:52.879Z,8.08
2019-02-14T08:53:58.652Z,8.58
2019-02-14T08:59:04.299Z,9.93
2019-02-14T09:04:10.389Z,8.35
2019-02-14T09:09:16.258Z,9.28
2019-02-14T09:14:22.018Z,17.15
2019-02-14T09:19:27.877Z,5.17
2019-02-14T09:24:33.850Z,7.08
2019-02-14T09:29:39.529Z,9.18
2019-02-14T09:34:45.509Z,13.08
2019-02-14T09:39:51.723Z,9.93
2019-02-14T09:44:57.560Z,8.50
2019-02-14T09:50:03.600Z,8.15
2019-02-14T09:55:10.068Z,6.45
2019-02-14T10:00:17.090Z,4.65
2019-02-14T10:05:22.969Z,6.30
2019-02-14T10:10:29.114Z,9.25
2019-02-14T10:15:34.959Z,17.07
2019-02-14T10:20:40.788Z,18.70
2019-02-14T10:25:46.692Z,14.00
2019-02-14T10:30:52.610Z,15.83
2019-02-14T10:35:58.759Z,19.20
2019-02-14T10:41:05.068Z,17.90
2019-02-14T10:46:11.228Z,16.10
2019-02-14T10:51:17.953Z,11.18
2019-02-14T10:56:24.459Z,19.07
2019-02-14T11:01:30.358Z,17.35
2019-02-14T11:06:36.560Z,17.95
2019-02-14T11:11:43.399Z,17.62
2019-02-14T11:16:49.685Z,14.13
2019-02-14T11:21:55.730Z,13.40
2019-02-14T11:27:02.493Z,12.93
2019-02-14T11:32:08.439Z,14.33
2019-02-14T11:37:13.848Z,16.60
2019-02-14T11:42:21.848Z,10.98
2019-02-14T11:47:28.698Z,13.05
2019-02-14T11:52:35.648Z,14.68
2019-02-14T11:57:41.740Z,9.33
2019-02-14T12:02:55.026Z,9.55
2019-02-14T12:07:56.298Z,11.08
2019-02-14T12:13:02.168Z,11.80
2019-02-14T12:18:08.162Z,8.60
2019-02-14T12:23:14.849Z,10.20
2019-02-14T12:28:20.941Z,9.13
2019-02-14T12:33:27.178Z,10.00
2019-02-14T12:38:33.698Z,15.13
2019-02-14T12:43:40.970Z,6.33
2019-02-14T12:48:46.587Z,8.65
2019-02-14T12:53:52.457Z,11.22
2019-02-14T12:59:00.059Z,6.55
2019-02-14T13:04:07.278Z,7.17
2019-02-14T13:09:19.652Z,10.20
2019-02-14T13:14:20.468Z,7.62
2019-02-14T13:19:26.349Z,12.98
2019-02-14T13:24:32.338Z,8.73
2019-02-14T13:29:38.108Z,14.20
2019-02-14T13:34:43.888Z,12.53
2019-02-14T13:39:49.663Z,11.40
2019-02-14T13:44:55.678Z,13.90
2019-02-14T13:50:00.938Z,18.80
2019-02-14T13:55:07.447Z,22.85
2019-02-14T14:00:17.401Z,19.27
2019-02-14T14:05:23.449Z,16.67
2019-02-14T14:10:29.303Z,16.60
2019-02-14T14:15:35.068Z,21.57
2019-02-14T14:20:40.698Z,18.02
2019-02-14T14:25:46.563Z,26.42
2019-02-14T14:30:54.068Z,27.25
2019-02-14T14:35:59.919Z,18.87
2019-02-14T14:41:05.729Z,28.45
2019-02-14T14:46:36.169Z,28.05
2019-02-14T14:51:41.982Z,40.15
2019-02-14T14:56:47.978Z,34.23
2019-02-14T15:01:53.769Z,25.48
2019-02-14T15:06:59.848Z,28.07
2019-02-14T15:12:05.739Z,32.38
2019-02-14T15:17:12.221Z,24.07
2019-02-14T15:22:19.298Z,27.48
2019-02-14T15:27:25.308Z,22.30
2019-02-14T15:32:30.888Z,28.02
2019-02-14T15:37:37.211Z,27.73
2019-02-14T15:42:43.239Z,22.27
2019-02-14T15:47:48.890Z,17.70
2019-02-14T15:52:56.829Z,20.37
2019-02-14T15:58:04.329Z,18.20
2019-02-14T16:03:09.838Z,22.25
2019-02-14T16:08:15.739Z,20.32
2019-02-14T16:13:23.730Z,17.85
2019-02-14T16:18:29.710Z,20.35
2019-02-14T16:23:37.201Z,20.68
2019-02-14T16:28:43.110Z,17.60
2019-02-14T16:33:48.889Z,17.60
2019-02-14T16:38:56.323Z,18.10
2019-02-14T16:44:02.051Z,19.17
2019-02-14T16:49:08.003Z,14.45
2019-02-14T16:54:13.899Z,19.75
2019-02-14T16:59:20.028Z,17.12
2019-02-14T17:04:26.178Z,17.23
2019-02-14T17:09:32.260Z,16.62
2019-02-14T17:14:38.320Z,13.93
2019-02-14T17:19:44.149Z,10.85
2019-02-14T17:24:49.928Z,13.05
2019-02-14T17:29:55.759Z,14.53
2019-02-14T17:35:01.529Z,9.68
2019-02-14T17:40:07.558Z,16.93
2019-02-14T17:45:13.568Z,11.00
2019-02-14T17:50:19.388Z,15.58
2019-02-14T17:55:25.219Z,18.20
2019-02-14T18:00:31.868Z,18.10
2019-02-14T18:05:37.851Z,10.15
2019-02-14T18:10:43.848Z,9.25
2019-02-14T18:15:49.749Z,16.82
2019-02-14T18:20:55.488Z,10.43
2019-02-14T18:26:01.529Z,10.72
2019-02-14T18:31:07.418Z,10.05
2019-02-14T18:36:13.518Z,19.82
2019-02-14T18:41:19.759Z,10.13
2019-02-14T18:46:25.677Z,10.95
2019-02-14T18:51:31.833Z,13.30
2019-02-14T18:56:37.750Z,11.05
2019-02-14T19:01:44.869Z,11.90
2019-02-14T19:06:51.748Z,10.75
2019-02-14T19:11:59.338Z,18.30
2019-02-14T19:17:06.588Z,9.23
2019-02-14T19:22:12.478Z,9.83
2019-02-14T19:27:18.389Z,8.25
2019-02-14T19:32:24.439Z,9.75
2019-02-14T19:37:30.321Z,8.53
2019-02-14T19:42:47.754Z,9.10
2019-02-14T19:48:05.635Z,10.10
2019-02-14T19:53:26.116Z,7.40
2019-02-14T19:58:35.535Z,7.62
2019-02-14T20:03:54.426Z,6.15
2019-02-14T20:09:13.175Z,8.13
2019-02-14T20:14:37.079Z,9.35
2019-02-14T20:20:03.510Z,7.15
2019-02-14T20:25:17.786Z,5.72
2019-02-14T20:30:43.170Z,10.90
2019-02-14T20:35:49.403Z,7.55
2019-02-14T20:40:56.119Z,7.58
2019-02-14T20:46:08.095Z,8.13
2019-02-14T20:51:16.593Z,5.78
2019-02-14T20:56:27.454Z,7.45
2019-02-14T21:01:42.037Z,6.67
2019-02-14T21:06:51.625Z,8.40
2019-02-14T21:12:03.006Z,4.80
2019-02-14T21:17:09.712Z,5.90
2019-02-14T21:22:18.625Z,7.17
2019-02-14T21:27:23.032Z,5.60
2019-02-14T21:32:28.812Z,7.00
2019-02-14T21:37:35.871Z,6.92
2019-02-14T21:42:42.183Z,6.40
2019-02-14T21:47:48.949Z,3.92
2019-02-14T21:52:57.491Z,6.62
2019-02-14T21:58:05.583Z,6.53
2019-02-14T22:03:13.971Z,5.42
2019-02-14T22:08:22.543Z,7.05
2019-02-14T22:13:28.550Z,5.00
2019-02-14T22:18:34.719Z,8.10
2019-02-14T22:23:40.869Z,6.60
2019-02-14T22:28:46.960Z,4.72
2019-02-14T22:33:53.558Z,6.55
2019-02-14T22:39:00.741Z,4.95
2019-02-14T22:44:08.180Z,4.72
2019-02-14T22:49:14.710Z,4.92
2019-02-14T22:54:20.429Z,6.00
2019-02-14T22:59:27.960Z,5.62
2019-02-14T23:04:33.929Z,5.12
2019-02-14T23:09:39.639Z,5.42
2019-02-14T23:14:45.748Z,7.20
2019-02-14T23:19:51.888Z,5.20
2019-02-14T23:24:57.578Z,4.92
2019-02-14T23:30:03.712Z,4.12
2019-02-14T23:35:09.950Z,4.85
2019-02-14T23:40:15.738Z,5.50
2019-02-14T23:45:21.420Z,5.92
2019-02-14T23:50:27.539Z,4.47
2019-02-14T23:55:33.298Z,4.30
